AVV weather

Avalon Airport
Melbourne, Victoria, Australia

Public forecast

Using degrees Celsius for public forecast. Weather courtesy of forecast.io.

METAR (pilot weather report)

Retrieved 2018/04/23 16:30 UTC (20 minutes ago):

YMAV 231630Z AUTO 36006KT 9999 // SCT074 17/07 Q1013 RF00.0/000.0

TAF (pilot weather forecast)

Forecast is more than 6 hours old.

Retrieved 2018/04/23 06:00 UTC (11 hours ago):

TAF YMAV 230521Z 2306/2406 11008KT 8000 HZ NSC FM230900 06006KT 8000 HZ NSC FM231400 04008KT CAVOK FM240200 32010KT 9999 -SHRA BKN100